createdAt,value
2018-03-21T00:01:50.402Z,79.98
2018-03-21T00:04:23.659Z,80.28
2018-03-21T00:06:57.721Z,80.83
2018-03-21T00:09:30.993Z,80.31
2018-03-21T00:12:04.269Z,80.11
2018-03-21T00:14:37.550Z,81.08
2018-03-21T01:48:18.438Z,82.91
2018-03-21T01:50:51.705Z,82.85
2018-03-21T01:53:24.984Z,82.83
2018-03-21T01:55:58.279Z,82.93
2018-03-21T01:58:31.558Z,83.15
2018-03-21T03:32:08.628Z,83.05
2018-03-21T03:34:41.914Z,82.58
2018-03-21T03:37:15.177Z,82.52
2018-03-21T03:39:48.469Z,82.54
2018-03-21T03:42:22.502Z,82.78
2018-03-21T03:44:55.777Z,82.72
2018-03-21T04:46:05.234Z,83.83
2018-03-21T04:48:38.497Z,83.55
2018-03-21T04:51:12.561Z,84.05
2018-03-21T04:53:45.822Z,84.00
2018-03-21T04:56:19.126Z,83.36
2018-03-21T04:58:52.394Z,83.89
2018-03-21T05:30:53.614Z,82.55
2018-03-21T05:33:26.890Z,82.22
2018-03-21T05:36:00.162Z,81.76
2018-03-21T05:38:33.463Z,82.22
2018-03-21T05:41:06.732Z,82.24
2018-03-21T05:43:40.028Z,81.72
2018-03-21T05:46:13.294Z,81.17
2018-03-21T05:48:46.578Z,80.95
2018-03-21T05:51:20.642Z,80.23
2018-03-21T05:53:53.901Z,80.99
2018-03-21T05:56:27.962Z,80.46
2018-03-21T05:59:01.228Z,80.33
2018-03-21T06:01:34.522Z,79.85
2018-03-21T06:04:07.779Z,80.12
2018-03-21T06:06:41.141Z,79.69
2018-03-21T06:09:14.430Z,79.75
2018-03-21T06:11:47.694Z,79.47
2018-03-21T06:14:20.984Z,79.98
2018-03-21T06:16:54.255Z,79.22
2018-03-21T06:19:28.325Z,79.29
2018-03-21T06:22:01.606Z,78.96
2018-03-21T06:24:34.861Z,78.39
2018-03-21T06:27:08.905Z,79.00
2018-03-21T06:29:42.166Z,78.48
2018-03-21T06:32:16.220Z,77.96
2018-03-21T06:34:49.505Z,78.36
2018-03-21T06:37:22.781Z,78.16
2018-03-21T06:39:56.080Z,77.38
2018-03-21T06:42:29.340Z,77.87
2018-03-21T06:45:02.617Z,77.76
2018-03-21T06:47:35.869Z,77.83
2018-03-21T06:50:09.151Z,76.71
2018-03-21T06:52:42.412Z,76.34
2018-03-21T06:55:15.704Z,76.51
2018-03-21T06:57:48.957Z,76.76
2018-03-21T07:00:22.246Z,76.88
2018-03-21T07:02:55.601Z,77.33
2018-03-21T07:05:29.625Z,76.92
2018-03-21T07:08:03.686Z,77.19
2018-03-21T07:10:36.938Z,77.11
2018-03-21T07:13:10.226Z,78.36
2018-03-21T07:16:01.906Z,77.77
2018-03-21T07:18:35.191Z,76.82
2018-03-21T07:21:08.443Z,76.37
2018-03-21T07:23:41.713Z,76.41
2018-03-21T07:26:14.984Z,75.77
2018-03-21T07:28:48.260Z,74.94
2018-03-21T08:00:56.915Z,72.79
2018-03-21T08:03:30.173Z,72.80
2018-03-21T08:06:03.470Z,72.23
2018-03-21T08:08:36.732Z,72.20
2018-03-21T08:11:10.037Z,71.65
2018-03-21T08:13:43.382Z,72.12
2018-03-21T09:01:48.489Z,70.12
2018-03-21T09:04:21.765Z,70.23
2018-03-21T09:06:55.018Z,69.52
2018-03-21T09:09:28.312Z,69.84
2018-03-21T09:12:01.573Z,69.84
2018-03-21T09:14:35.607Z,69.79
2018-03-21T10:02:43.109Z,66.45
2018-03-21T10:05:16.361Z,66.86
2018-03-21T10:07:49.637Z,67.72
2018-03-21T10:10:22.884Z,67.61
2018-03-21T10:12:56.165Z,68.91
2018-03-21T11:04:01.682Z,61.04
2018-03-21T11:06:34.929Z,58.81
2018-03-21T11:09:08.967Z,60.58
2018-03-21T11:11:42.285Z,60.47
2018-03-21T11:14:15.526Z,60.68
2018-03-21T12:02:22.657Z,59.90
2018-03-21T12:04:55.930Z,58.51
2018-03-21T12:07:29.202Z,60.87
2018-03-21T12:10:02.465Z,59.42
2018-03-21T12:12:36.482Z,60.74
2018-03-21T13:03:16.201Z,60.07
2018-03-21T13:05:49.478Z,59.49
2018-03-21T13:08:22.726Z,58.14
2018-03-21T13:10:56.004Z,57.42
2018-03-21T13:13:29.263Z,56.97
2018-03-21T14:01:35.046Z,53.16
2018-03-21T14:04:08.288Z,50.71
2018-03-21T14:06:41.562Z,53.83
2018-03-21T14:09:14.838Z,51.16
2018-03-21T14:11:48.094Z,53.58
2018-03-21T14:14:21.353Z,52.48
2018-03-21T15:02:25.922Z,49.93
2018-03-21T15:04:59.160Z,48.06
2018-03-21T15:07:32.453Z,48.87
2018-03-21T15:10:05.756Z,48.02
2018-03-21T15:12:38.981Z,47.92
2018-03-21T15:47:03.067Z,52.45
2018-03-21T15:49:36.313Z,52.07
2018-03-21T15:52:10.353Z,52.32
2018-03-21T15:54:43.635Z,49.99
2018-03-21T15:57:16.872Z,49.75
2018-03-21T15:59:50.136Z,48.59
2018-03-21T16:31:40.861Z,52.74
2018-03-21T16:34:14.874Z,52.40
2018-03-21T16:36:48.948Z,50.94
2018-03-21T16:39:22.211Z,50.58
2018-03-21T16:41:55.473Z,51.31
2018-03-21T16:44:29.490Z,50.86
2018-03-21T16:47:03.532Z,51.21
2018-03-21T16:49:36.777Z,51.15
2018-03-21T16:52:10.059Z,50.52
2018-03-21T16:54:43.313Z,50.44
2018-03-21T16:57:16.589Z,48.80
2018-03-21T16:59:50.598Z,49.58
2018-03-21T17:02:23.877Z,48.79
2018-03-21T17:04:57.898Z,46.15
2018-03-21T17:07:31.929Z,46.97
2018-03-21T17:10:05.231Z,49.14
2018-03-21T17:12:38.505Z,47.32
2018-03-21T17:15:11.762Z,47.37
2018-03-21T17:17:45.042Z,48.00
2018-03-21T17:20:18.291Z,48.24
2018-03-21T17:22:52.338Z,48.56
2018-03-21T17:25:25.586Z,46.63
2018-03-21T17:27:59.636Z,48.44
2018-03-21T17:30:32.877Z,48.83
2018-03-21T17:33:06.921Z,49.13
2018-03-21T17:35:40.182Z,48.86
2018-03-21T17:38:14.301Z,50.12
2018-03-21T17:40:47.573Z,48.78
2018-03-21T17:43:20.852Z,49.40
2018-03-21T17:45:54.127Z,49.72
2018-03-21T17:48:27.369Z,50.92
2018-03-21T17:51:00.653Z,50.52
2018-03-21T17:53:33.892Z,51.58
2018-03-21T17:56:07.266Z,50.72
2018-03-21T17:58:40.543Z,51.28
2018-03-21T18:01:13.791Z,50.95
2018-03-21T18:03:47.064Z,50.57
2018-03-21T18:06:20.360Z,51.85
2018-03-21T18:08:54.361Z,51.36
2018-03-21T18:11:28.387Z,51.99
2018-03-21T18:14:01.667Z,52.10
2018-03-21T18:16:34.949Z,51.23
2018-03-21T18:19:08.196Z,51.59
2018-03-21T18:21:41.463Z,51.22
2018-03-21T18:24:14.709Z,50.84
2018-03-21T18:26:47.986Z,51.21
2018-03-21T18:29:21.232Z,50.35
2018-03-21T18:31:54.505Z,51.14
2018-03-21T18:34:27.766Z,50.85
2018-03-21T18:37:01.059Z,50.70
2018-03-21T18:39:34.335Z,52.01
2018-03-21T18:42:07.606Z,52.41
2018-03-21T18:44:40.860Z,52.56
2018-03-21T18:47:14.133Z,52.70
2018-03-21T18:49:47.382Z,52.99
2018-03-21T18:52:20.652Z,52.67
2018-03-21T18:54:53.936Z,52.95
2018-03-21T18:57:27.191Z,53.40
2018-03-21T19:00:00.463Z,53.23
2018-03-21T19:02:33.883Z,54.38
2018-03-21T19:05:07.173Z,54.61
2018-03-21T19:07:40.561Z,55.39
2018-03-21T19:10:13.823Z,54.55
2018-03-21T19:12:47.859Z,54.08
2018-03-21T19:15:21.112Z,53.99
2018-03-21T19:17:54.402Z,54.00
2018-03-21T19:20:27.657Z,54.85
2018-03-21T19:23:00.937Z,54.90
2018-03-21T19:25:34.186Z,55.03
2018-03-21T19:28:07.466Z,55.01
2018-03-21T19:30:40.742Z,54.98
2018-03-21T19:33:14.991Z,55.16
2018-03-21T19:35:48.269Z,55.67
2018-03-21T19:38:21.523Z,56.03
2018-03-21T19:40:54.809Z,55.83
2018-03-21T19:43:28.050Z,56.03
2018-03-21T19:46:01.338Z,56.44
2018-03-21T19:48:34.590Z,56.39
2018-03-21T19:51:07.874Z,56.29
2018-03-21T19:53:41.125Z,56.27
2018-03-21T19:56:14.397Z,56.04
2018-03-21T19:58:47.642Z,56.09
2018-03-21T20:01:21.691Z,56.78
2018-03-21T20:03:54.974Z,56.00
2018-03-21T20:06:28.223Z,56.08
2018-03-21T20:09:01.508Z,56.39
2018-03-21T20:11:34.762Z,56.21
2018-03-21T20:14:08.032Z,56.56
2018-03-21T20:16:42.053Z,56.80
2018-03-21T20:19:15.326Z,56.99
2018-03-21T20:21:49.351Z,57.46
2018-03-21T20:24:23.395Z,57.87
2018-03-21T20:26:56.654Z,57.14
2018-03-21T20:29:30.706Z,58.15
2018-03-21T20:32:03.974Z,58.16
2018-03-21T20:34:37.245Z,58.06
2018-03-21T20:37:11.273Z,58.56
2018-03-21T20:39:44.554Z,58.43
2018-03-21T20:42:17.806Z,58.33
2018-03-21T20:44:51.072Z,58.14
2018-03-21T20:47:24.321Z,58.53
2018-03-21T20:49:57.618Z,58.46
2018-03-21T20:52:30.877Z,57.84
2018-03-21T20:55:04.976Z,57.81
2018-03-21T20:57:38.225Z,58.00
2018-03-21T21:00:12.271Z,57.79
2018-03-21T21:02:45.552Z,58.07
2018-03-21T21:05:18.816Z,57.89
2018-03-21T21:07:52.102Z,58.62
2018-03-21T21:10:25.350Z,58.76
2018-03-21T21:12:58.630Z,58.87
2018-03-21T21:15:31.886Z,58.91
2018-03-21T21:18:05.157Z,58.88
2018-03-21T21:20:38.424Z,58.37
2018-03-21T21:23:11.698Z,58.68
2018-03-21T21:25:44.961Z,58.28
2018-03-21T21:28:18.238Z,58.19
2018-03-21T21:30:51.532Z,58.14
2018-03-21T21:33:24.790Z,58.44
2018-03-21T21:35:58.065Z,58.61
2018-03-21T21:38:31.365Z,59.10
2018-03-21T21:41:04.638Z,59.78
2018-03-21T21:43:37.930Z,59.35
2018-03-21T21:46:11.177Z,59.58
2018-03-21T21:48:44.465Z,59.33
2018-03-21T21:51:17.775Z,58.77
2018-03-21T21:53:51.022Z,59.11
2018-03-21T21:56:25.075Z,58.63
2018-03-21T21:58:58.330Z,58.97
2018-03-21T22:01:32.385Z,58.58
2018-03-21T22:04:05.643Z,58.48
2018-03-21T22:06:38.948Z,58.62
2018-03-21T22:09:12.261Z,59.17
2018-03-21T22:11:45.493Z,59.27
2018-03-21T22:14:18.752Z,59.14
2018-03-21T22:16:52.033Z,59.46
2018-03-21T22:19:25.294Z,59.32
2018-03-21T22:21:58.592Z,59.25
2018-03-21T22:24:32.608Z,59.54
2018-03-21T22:27:06.672Z,59.49
2018-03-21T22:29:39.953Z,59.84
2018-03-21T22:32:13.201Z,60.08
2018-03-21T22:34:47.248Z,60.54
2018-03-21T22:37:20.520Z,60.59
2018-03-21T22:39:53.801Z,60.72
2018-03-21T22:42:27.850Z,60.62
2018-03-21T22:45:01.127Z,60.85
2018-03-21T22:47:34.401Z,61.09
2018-03-21T22:50:08.453Z,61.16
2018-03-21T22:52:41.742Z,61.33
2018-03-21T22:55:15.068Z,61.26
2018-03-21T22:57:48.320Z,61.16
2018-03-21T23:00:21.597Z,61.42
2018-03-21T23:02:55.618Z,61.53
2018-03-21T23:05:28.900Z,61.40
2018-03-21T23:08:02.197Z,61.49
2018-03-21T23:10:36.225Z,61.62
2018-03-21T23:13:09.526Z,61.79
2018-03-21T23:15:42.769Z,61.62
2018-03-21T23:18:16.065Z,61.83
2018-03-21T23:20:49.329Z,61.54
2018-03-21T23:23:22.597Z,61.61
2018-03-21T23:25:55.879Z,61.55
2018-03-21T23:28:29.121Z,61.73
2018-03-21T23:31:02.406Z,61.90
2018-03-21T23:33:35.673Z,61.63
2018-03-21T23:36:08.952Z,61.93
2018-03-21T23:38:42.261Z,61.71
2018-03-21T23:41:15.606Z,61.94
2018-03-21T23:43:48.854Z,62.11
2018-03-21T23:46:22.139Z,62.02
2018-03-21T23:48:55.401Z,62.07
2018-03-21T23:51:29.454Z,62.02
2018-03-21T23:54:02.725Z,61.93
2018-03-21T23:56:36.787Z,61.58
2018-03-21T23:59:10.049Z,61.71
